Terminal Aerodrome Forecast
Issued by NWS

Home | Current Version | Previous Version | Text Only | Print | Product List | Glossary On
Versions: 1 2 3 4 5 6 7 8 9 10 11 12 13 14 15 16 17 18 19 20 21 22 23 24 25 26
000
FTUS41 KCTP 291140
TAFUNV
TAF
KUNV 291140Z 2912/3012 25005KT P6SM SCT050 OVC100
     FM292000 30007KT P6SM OVC050
     FM300000 03004KT P6SM OVC050
     FM300500 07003KT P6SM OVC050=

USA.gov is the U.S. government's official web portal to all federal, state and local government web resources and services.